Rochester, MI

11:48 AM EDT on June 03, 2015 (GMT -0400)
Troy | | Change Station
CLOSE
Current Station
Airport
Location: Troy,
Elevation: 728 ft
Nearby Weather Stations

Elev 728 ft 42.54 °N, 83.18 °W | Updated 14 minutes ago

Partly Cloudy
Partly Cloudy
69 °F
Feels Like 69 °F
N
6
Wind Variable Wind from SE

Today
High -- | Low -- °F
--% Chance of Precip.
Yesterday
High -- | Low -- °F
Precip. -- in
5:56 AM 9:05 PM
Full, 99% visible
Pressure 30.15 in
Visibility 10.0 miles
Clouds Scattered Clouds 2800 ft
Scattered Clouds 3300 ft
Dew Point 55 °F
Humidity 61%
Rainfall 0.00 in
Snow Depth Not available.
UV 8 out of 12
Pollen 8.30 out of 12
Air Quality Not available.
Flu Activity Sporadic
METAR KVLL 031534Z AUTO 13005KT 10SM SCT028 SCT033 21/13 A3015 RMK AO2 T02060128

More Conditions Fewer Conditions

Pressure 30.15 in
Visibility 10.0 miles
Clouds Scattered Clouds 2800 ft
Scattered Clouds 3300 ft
Dew Point 55 °F
Humidity 61%
Rainfall 0.00 in
Snow Depth Not available.
UV 8 out of 12
Pollen 8.30 out of 12
Air Quality Not available.
Flu Activity Sporadic
METAR KVLL 031534Z AUTO 13005KT 10SM SCT028 SCT033 21/13 A3015 RMK AO2 T02060128

More Conditions Fewer Conditions

10-Day Weather Forecast

×

Almanac

Astronomy

Jun. 03, 2015 Rise Set
Actual Time
Civil Twilight
Nautical Twilight
Astronomical Twilight
Moon
Length of Visible Light
Length of Day
Tomorrow will be .
, % of the Moon is Illuminated

Today's Extremes

State Highs State Lows

Community

WunderPhotos

Upload Photos

1,826,241 photos uploaded!

WunderBlogs® & News

Nearby

Air Quality

  Air Quality AQ Index Pollutant
Not available.

Snow Depth

Station Depth Elevation

Earthquake Activity

City Distance Mag. Time & Date
Minimum magnitude displayed is 2.5.

Coastal Water Temperatures

Place Temperature

Stations

Nearby Weather Stations

Station Location Temp. Windchill Dew Point Humidity Wind Precip. Elev Updated Type